createdAt,value
2017-07-09T00:00:29.201Z,12.7
2017-07-09T00:01:31.270Z,12.7
2017-07-09T00:02:33.336Z,12.7
2017-07-09T00:03:35.386Z,12.8
2017-07-09T00:04:37.445Z,12.8
2017-07-09T00:05:39.509Z,12.8
2017-07-09T00:06:41.574Z,12.8
2017-07-09T00:07:43.633Z,12.8
2017-07-09T00:08:45.691Z,12.8
2017-07-09T00:09:47.763Z,12.8
2017-07-09T00:10:49.819Z,12.8
2017-07-09T00:11:51.871Z,12.9
2017-07-09T00:12:53.936Z,12.8
2017-07-09T00:13:55.987Z,12.8
2017-07-09T00:14:58.041Z,12.7
2017-07-09T00:16:00.093Z,12.7
2017-07-09T00:17:02.153Z,12.7
2017-07-09T00:18:04.223Z,12.7
2017-07-09T00:19:06.274Z,12.7
2017-07-09T00:20:08.340Z,12.7
2017-07-09T00:21:10.395Z,12.7
2017-07-09T00:22:12.447Z,12.7
2017-07-09T00:23:14.500Z,12.7
2017-07-09T00:24:16.562Z,12.8
2017-07-09T00:25:18.628Z,12.8
2017-07-09T00:26:21.026Z,12.8
2017-07-09T00:27:23.096Z,12.8
2017-07-09T00:28:25.164Z,12.7
2017-07-09T00:29:27.213Z,12.7
2017-07-09T00:30:29.271Z,12.7
2017-07-09T00:31:31.331Z,12.7
2017-07-09T00:32:33.391Z,12.7
2017-07-09T00:33:35.444Z,12.7
2017-07-09T00:34:37.503Z,12.6
2017-07-09T00:35:39.577Z,12.5
2017-07-09T00:36:41.637Z,12.5
2017-07-09T00:37:43.702Z,12.5
2017-07-09T00:38:45.759Z,12.5
2017-07-09T00:39:47.811Z,12.4
2017-07-09T00:40:49.870Z,12.4
2017-07-09T00:41:51.923Z,12.4
2017-07-09T00:42:53.998Z,12.4
2017-07-09T00:43:56.065Z,12.5
2017-07-09T00:44:58.457Z,12.4
2017-07-09T00:46:00.518Z,12.4
2017-07-09T00:47:02.918Z,12.4
2017-07-09T00:48:05.335Z,12.4
2017-07-09T00:49:07.395Z,12.4
2017-07-09T00:50:09.458Z,12.4
2017-07-09T00:51:11.518Z,12.4
2017-07-09T00:52:13.584Z,12.4
2017-07-09T00:53:15.641Z,12.4
2017-07-09T00:54:17.692Z,12.3
2017-07-09T00:55:19.760Z,12.3
2017-07-09T00:56:21.815Z,12.3
2017-07-09T00:57:23.877Z,12.3
2017-07-09T00:58:25.932Z,12.3
2017-07-09T00:59:27.990Z,12.3
2017-07-09T01:00:30.061Z,12.4
2017-07-09T01:01:32.110Z,12.4
2017-07-09T01:02:34.170Z,12.4
2017-07-09T01:03:36.237Z,12.4
2017-07-09T01:04:38.307Z,12.4
2017-07-09T01:05:40.365Z,12.4
2017-07-09T01:06:42.426Z,12.4
2017-07-09T01:07:44.494Z,12.3
2017-07-09T01:08:46.569Z,12.3
2017-07-09T01:09:48.618Z,12.3
2017-07-09T01:10:50.678Z,12.3
2017-07-09T01:11:52.740Z,12.3
2017-07-09T01:12:54.803Z,12.2
2017-07-09T01:13:56.863Z,12.2
2017-07-09T01:14:58.928Z,12.2
2017-07-09T01:16:00.984Z,12.2
2017-07-09T01:17:03.042Z,12.1
2017-07-09T01:18:05.436Z,12.1
2017-07-09T01:19:07.513Z,12.1
2017-07-09T01:20:09.559Z,12.1
2017-07-09T01:21:11.623Z,12
2017-07-09T01:22:13.678Z,12
2017-07-09T01:23:15.743Z,11.9
2017-07-09T01:24:17.794Z,11.9
2017-07-09T01:25:19.857Z,12
2017-07-09T01:26:21.917Z,12
2017-07-09T01:27:23.982Z,11.9
2017-07-09T01:28:26.046Z,11.9
2017-07-09T01:29:28.102Z,11.9
2017-07-09T01:30:30.158Z,11.9
2017-07-09T01:31:32.222Z,11.9
2017-07-09T01:32:34.279Z,11.9
2017-07-09T01:33:36.336Z,11.9
2017-07-09T01:34:38.383Z,11.8
2017-07-09T01:35:40.440Z,11.8
2017-07-09T01:36:42.505Z,11.8
2017-07-09T01:37:44.561Z,11.8
2017-07-09T01:38:46.617Z,11.8
2017-07-09T01:39:48.665Z,11.8
2017-07-09T01:40:50.724Z,11.8
2017-07-09T01:41:52.783Z,11.9
2017-07-09T01:42:54.832Z,11.9
2017-07-09T01:43:56.904Z,11.7
2017-07-09T01:44:58.961Z,11.7
2017-07-09T01:46:01.016Z,11.6
2017-07-09T01:47:03.075Z,11.6
2017-07-09T01:48:05.437Z,11.6
2017-07-09T01:49:07.486Z,11.6
2017-07-09T01:50:09.552Z,11.6
2017-07-09T01:51:11.605Z,11.5
2017-07-09T01:52:13.667Z,11.4
2017-07-09T01:53:15.728Z,11.5
2017-07-09T01:54:17.782Z,11.5
2017-07-09T01:55:19.837Z,11.4
2017-07-09T01:56:21.904Z,11.4
2017-07-09T01:57:23.954Z,11.4
2017-07-09T01:58:26.013Z,11.4
2017-07-09T01:59:28.066Z,11.4
2017-07-09T02:00:30.121Z,11.4
2017-07-09T02:01:32.175Z,11.3
2017-07-09T02:02:34.232Z,11.3
2017-07-09T02:03:36.296Z,11.4
2017-07-09T02:04:38.354Z,11.3
2017-07-09T02:05:40.400Z,11.3
2017-07-09T02:06:42.458Z,11.3
2017-07-09T02:07:44.511Z,11.3
2017-07-09T02:08:46.580Z,11.3
2017-07-09T02:09:48.630Z,11.3
2017-07-09T02:10:50.680Z,11.3
2017-07-09T02:11:52.736Z,11.3
2017-07-09T02:12:54.797Z,11.3
2017-07-09T02:13:56.863Z,11.3
2017-07-09T02:14:58.913Z,11.3
2017-07-09T02:16:00.979Z,11.2
2017-07-09T02:17:03.030Z,11.2
2017-07-09T02:18:05.083Z,11.1
2017-07-09T02:19:07.140Z,11.1
2017-07-09T02:20:09.203Z,11.1
2017-07-09T02:21:11.266Z,11.1
2017-07-09T02:22:13.315Z,11.1
2017-07-09T02:23:15.372Z,11
2017-07-09T02:24:17.446Z,11
2017-07-09T02:25:19.493Z,11
2017-07-09T02:26:21.554Z,11
2017-07-09T02:27:23.615Z,11
2017-07-09T02:28:25.677Z,11
2017-07-09T02:29:28.071Z,11
2017-07-09T02:30:30.126Z,11
2017-07-09T02:31:32.195Z,11
2017-07-09T02:32:34.252Z,11
2017-07-09T02:33:36.311Z,11
2017-07-09T02:34:38.371Z,11
2017-07-09T02:35:40.421Z,11
2017-07-09T02:36:42.481Z,11
2017-07-09T02:37:44.530Z,10.9
2017-07-09T02:38:46.595Z,10.9
2017-07-09T02:39:48.664Z,10.9
2017-07-09T02:40:50.711Z,10.9
2017-07-09T02:41:52.772Z,10.9
2017-07-09T02:42:54.833Z,10.9
2017-07-09T02:43:56.893Z,10.9
2017-07-09T02:44:58.949Z,10.9
2017-07-09T02:46:01.014Z,10.9
2017-07-09T02:47:03.074Z,10.9
2017-07-09T02:48:05.139Z,10.9
2017-07-09T02:49:07.199Z,10.8
2017-07-09T02:50:09.244Z,10.8
2017-07-09T02:51:11.307Z,10.8
2017-07-09T02:52:13.371Z,10.8
2017-07-09T02:53:15.429Z,10.8
2017-07-09T02:54:17.490Z,10.8
2017-07-09T02:55:19.553Z,10.8
2017-07-09T02:56:21.610Z,10.8
2017-07-09T02:57:24.002Z,10.8
2017-07-09T02:58:26.058Z,10.8
2017-07-09T02:59:28.123Z,10.8
2017-07-09T03:00:30.183Z,10.8
2017-07-09T03:01:32.244Z,10.8
2017-07-09T03:02:34.296Z,10.8
2017-07-09T03:03:36.352Z,10.8
2017-07-09T03:04:38.409Z,10.8
2017-07-09T03:05:40.479Z,10.8
2017-07-09T03:06:42.533Z,10.7
2017-07-09T03:07:44.598Z,10.7
2017-07-09T03:08:46.657Z,10.7
2017-07-09T03:09:48.704Z,10.7
2017-07-09T03:10:50.768Z,10.7
2017-07-09T03:11:52.826Z,10.7
2017-07-09T03:12:54.882Z,10.8
2017-07-09T03:13:56.944Z,10.7
2017-07-09T03:14:58.998Z,10.7
2017-07-09T03:16:01.061Z,10.7
2017-07-09T03:17:03.116Z,10.7
2017-07-09T03:18:05.178Z,10.7
2017-07-09T03:19:07.247Z,10.7
2017-07-09T03:20:09.303Z,10.7
2017-07-09T03:21:11.356Z,10.7
2017-07-09T03:22:13.408Z,10.7
2017-07-09T03:23:15.479Z,10.7
2017-07-09T03:24:17.540Z,10.8
2017-07-09T03:25:19.595Z,10.8
2017-07-09T03:26:21.657Z,10.8
2017-07-09T03:27:23.713Z,10.8
2017-07-09T03:28:25.771Z,10.8
2017-07-09T03:29:28.180Z,10.8
2017-07-09T03:30:30.227Z,10.8
2017-07-09T03:31:32.300Z,10.8
2017-07-09T03:32:34.352Z,10.8
2017-07-09T03:33:36.411Z,10.7
2017-07-09T03:34:38.468Z,10.7
2017-07-09T03:35:40.876Z,10.7
2017-07-09T03:36:43.282Z,10.7
2017-07-09T03:37:45.341Z,10.7
2017-07-09T03:38:47.397Z,10.7
2017-07-09T03:39:49.458Z,10.7
2017-07-09T03:40:51.856Z,10.7
2017-07-09T03:41:54.274Z,10.7
2017-07-09T03:42:56.342Z,10.7
2017-07-09T03:43:58.395Z,10.7
2017-07-09T03:45:00.446Z,10.7
2017-07-09T03:46:02.514Z,10.8
2017-07-09T03:47:04.576Z,10.8
2017-07-09T03:48:06.631Z,10.8
2017-07-09T03:49:08.695Z,10.8
2017-07-09T03:50:10.758Z,10.8
2017-07-09T03:51:12.822Z,10.8
2017-07-09T03:52:14.873Z,10.9
2017-07-09T03:53:17.271Z,10.9
2017-07-09T03:54:19.348Z,11
2017-07-09T03:55:21.403Z,11
2017-07-09T03:56:23.466Z,11
2017-07-09T03:57:25.532Z,11.1
2017-07-09T03:58:27.581Z,11.1
2017-07-09T03:59:29.644Z,11.1
2017-07-09T04:00:31.706Z,11.1
2017-07-09T04:01:33.759Z,11.1
2017-07-09T04:02:35.813Z,11.1
2017-07-09T04:03:37.878Z,11.1
2017-07-09T04:04:39.939Z,11.1
2017-07-09T04:05:41.994Z,11.1
2017-07-09T04:06:44.406Z,11.1
2017-07-09T04:07:46.465Z,11.1
2017-07-09T04:08:48.524Z,11.1
2017-07-09T04:09:50.577Z,11.1
2017-07-09T04:10:52.646Z,11.1
2017-07-09T04:11:54.710Z,11.1
2017-07-09T04:12:56.773Z,11.2
2017-07-09T04:13:58.838Z,11.2
2017-07-09T04:15:00.894Z,11.2
2017-07-09T04:16:02.957Z,11.3
2017-07-09T04:17:05.011Z,11.3
2017-07-09T04:18:07.074Z,11.3
2017-07-09T04:19:09.141Z,11.3
2017-07-09T04:20:11.195Z,11.4
2017-07-09T04:21:13.258Z,11.4
2017-07-09T04:22:15.317Z,11.4
2017-07-09T04:23:17.375Z,11.4
2017-07-09T04:24:19.441Z,11.4
2017-07-09T04:25:21.493Z,11.5
2017-07-09T04:26:23.563Z,11.5
2017-07-09T04:27:25.635Z,11.5
2017-07-09T04:28:27.694Z,11.5
2017-07-09T04:29:29.753Z,11.5
2017-07-09T04:30:31.819Z,11.6
2017-07-09T04:31:33.881Z,11.6
2017-07-09T04:32:35.944Z,11.6
2017-07-09T04:33:38.005Z,11.6
2017-07-09T04:34:40.421Z,11.6
2017-07-09T04:35:42.480Z,11.6
2017-07-09T04:36:44.533Z,11.6
2017-07-09T04:37:46.595Z,11.7
2017-07-09T04:38:49.000Z,11.7
2017-07-09T04:39:51.059Z,11.7
2017-07-09T04:40:53.118Z,11.7
2017-07-09T04:41:55.186Z,11.8
2017-07-09T04:42:57.247Z,11.8
2017-07-09T04:43:59.322Z,11.8
2017-07-09T04:45:01.381Z,11.9
2017-07-09T04:46:03.433Z,11.9
2017-07-09T04:47:05.675Z,11.8
2017-07-09T04:48:07.749Z,11.8
2017-07-09T04:49:09.812Z,11.9
2017-07-09T04:50:11.875Z,11.9
2017-07-09T04:51:13.934Z,12
2017-07-09T04:52:15.989Z,12
2017-07-09T04:53:18.041Z,12
2017-07-09T04:54:20.100Z,12.1
2017-07-09T04:55:22.173Z,12.1
2017-07-09T04:56:24.238Z,12.1
2017-07-09T04:57:26.300Z,12.1
2017-07-09T04:58:28.362Z,12.1
2017-07-09T04:59:30.423Z,12.1
2017-07-09T05:00:32.485Z,12.2
2017-07-09T05:01:34.552Z,12.2
2017-07-09T05:02:36.614Z,12.3
2017-07-09T05:03:38.683Z,12.4
2017-07-09T05:04:40.744Z,12.4
2017-07-09T05:05:42.802Z,12.4
2017-07-09T05:06:44.865Z,12.4
2017-07-09T05:07:46.935Z,12.4
2017-07-09T05:08:48.994Z,12.6
2017-07-09T05:09:51.067Z,12.7
2017-07-09T05:10:53.126Z,12.6
2017-07-09T05:11:55.193Z,12.6
2017-07-09T05:12:58.004Z,12.6
2017-07-09T05:14:00.407Z,12.6
2017-07-09T05:15:02.480Z,12.6
2017-07-09T05:16:04.532Z,12.6
2017-07-09T05:17:06.609Z,12.7
2017-07-09T05:18:08.671Z,12.7
2017-07-09T05:19:10.733Z,12.7
2017-07-09T05:20:13.160Z,12.7
2017-07-09T05:21:15.223Z,12.7
2017-07-09T05:22:17.290Z,12.7
2017-07-09T05:23:19.349Z,12.8
2017-07-09T05:24:21.422Z,12.8
2017-07-09T05:25:23.498Z,12.8
2017-07-09T05:26:25.547Z,12.9
2017-07-09T05:27:27.615Z,12.9
2017-07-09T05:28:29.679Z,13
2017-07-09T05:29:31.744Z,13
2017-07-09T05:30:33.808Z,13
2017-07-09T05:31:35.877Z,13
2017-07-09T05:32:37.939Z,13
2017-07-09T05:33:40.005Z,13.1
2017-07-09T05:34:42.061Z,13.1
2017-07-09T05:35:44.124Z,13.2
2017-07-09T05:36:46.186Z,13.2
2017-07-09T05:37:48.252Z,13.2
2017-07-09T05:38:50.323Z,13.1
2017-07-09T05:39:52.737Z,13.2
2017-07-09T05:40:54.802Z,13.3
2017-07-09T05:41:56.871Z,13.2
2017-07-09T05:42:58.951Z,13.2
2017-07-09T05:44:01.022Z,13.3
2017-07-09T05:45:03.092Z,13.3
2017-07-09T05:46:05.167Z,13.4
2017-07-09T05:47:08.428Z,13.4
2017-07-09T05:48:10.593Z,13.5
2017-07-09T05:49:12.669Z,13.6
2017-07-09T05:50:14.737Z,13.7
2017-07-09T05:51:16.810Z,13.7
2017-07-09T05:52:18.881Z,13.7
2017-07-09T05:53:20.949Z,13.7
2017-07-09T05:54:23.385Z,13.7
2017-07-09T05:55:25.445Z,13.7
2017-07-09T05:56:27.649Z,13.8
2017-07-09T05:57:29.852Z,13.8
2017-07-09T05:58:31.916Z,13.8
2017-07-09T05:59:34.323Z,13.9
2017-07-09T06:00:36.431Z,13.9
2017-07-09T06:01:38.527Z,13.9
2017-07-09T06:02:40.598Z,13.9
2017-07-09T06:03:42.677Z,14
2017-07-09T06:04:44.737Z,14
2017-07-09T06:05:46.803Z,14
2017-07-09T06:06:48.979Z,14.1
2017-07-09T06:07:51.041Z,14.1
2017-07-09T06:08:53.139Z,14.2
2017-07-09T06:09:55.348Z,14.2
2017-07-09T06:10:57.404Z,14.2
2017-07-09T06:11:59.465Z,14.1
2017-07-09T06:13:01.604Z,14.1
2017-07-09T06:14:03.655Z,14.2
2017-07-09T06:15:05.728Z,14.3
2017-07-09T06:16:07.801Z,14.3
2017-07-09T06:17:09.865Z,14.3
2017-07-09T06:18:11.945Z,14.3
2017-07-09T06:19:14.009Z,14.4
2017-07-09T06:20:16.081Z,14.5
2017-07-09T06:21:18.150Z,14.5
2017-07-09T06:22:20.210Z,14.5
2017-07-09T06:23:22.283Z,14.5
2017-07-09T06:24:24.348Z,14.5
2017-07-09T06:25:26.414Z,14.5
2017-07-09T06:26:28.472Z,14.5
2017-07-09T06:27:30.548Z,14.5
2017-07-09T06:28:32.627Z,14.5
2017-07-09T06:30:00.330Z,14.6
2017-07-09T06:31:02.343Z,14.6
2017-07-09T06:32:04.354Z,14.7
2017-07-09T06:33:06.366Z,14.7
2017-07-09T06:34:08.384Z,14.7
2017-07-09T06:35:10.403Z,14.8
2017-07-09T06:36:12.438Z,14.7
2017-07-09T06:37:14.459Z,14.7
2017-07-09T06:38:16.466Z,14.7
2017-07-09T06:39:18.483Z,14.8
2017-07-09T06:40:20.516Z,14.8
2017-07-09T06:41:22.534Z,14.8
2017-07-09T06:42:24.563Z,14.9
2017-07-09T06:43:26.583Z,14.9
2017-07-09T06:44:28.598Z,15
2017-07-09T06:45:30.620Z,15
2017-07-09T06:46:32.627Z,15
2017-07-09T06:47:34.655Z,14.9
2017-07-09T06:48:36.676Z,15
2017-07-09T06:49:38.691Z,15
2017-07-09T06:50:40.712Z,15
2017-07-09T06:51:43.078Z,15.1
2017-07-09T06:52:45.164Z,15.1
2017-07-09T06:53:47.473Z,15.1
2017-07-09T06:54:49.498Z,15.1
2017-07-09T06:55:51.523Z,15.2
2017-07-09T06:56:53.534Z,15.2
2017-07-09T06:57:55.558Z,15.3
2017-07-09T06:58:57.588Z,15.3
2017-07-09T06:59:59.597Z,15.4
2017-07-09T07:01:01.618Z,15.3
2017-07-09T07:02:03.643Z,15.3
2017-07-09T07:03:05.669Z,15.3
2017-07-09T07:04:07.696Z,15.4
2017-07-09T07:05:09.709Z,15.4
2017-07-09T07:06:11.739Z,15.5
2017-07-09T07:07:13.751Z,15.6
2017-07-09T07:08:15.771Z,15.6
2017-07-09T07:09:17.791Z,15.7
2017-07-09T07:10:19.810Z,15.7
2017-07-09T07:11:21.832Z,15.7
2017-07-09T07:12:23.863Z,15.7
2017-07-09T07:13:25.871Z,15.7
2017-07-09T07:14:27.895Z,15.8
2017-07-09T07:15:29.916Z,15.8
2017-07-09T07:16:31.935Z,15.9
2017-07-09T07:17:33.958Z,15.9
2017-07-09T07:18:35.985Z,15.9
2017-07-09T07:19:38.009Z,16
2017-07-09T07:20:40.030Z,16.1
2017-07-09T07:21:42.046Z,16.1
2017-07-09T07:22:44.074Z,16.1
2017-07-09T07:23:46.094Z,16.2
2017-07-09T07:24:48.115Z,16.2
2017-07-09T07:25:50.141Z,16.3
2017-07-09T07:26:52.157Z,16.3
2017-07-09T07:27:54.193Z,16.3
2017-07-09T07:28:56.211Z,16.3
2017-07-09T07:29:58.246Z,16.3
2017-07-09T07:31:00.268Z,16.3
2017-07-09T07:32:02.287Z,16.2
2017-07-09T07:33:04.364Z,16.3
2017-07-09T07:34:06.340Z,16.2
2017-07-09T07:35:08.366Z,16.3
2017-07-09T07:36:10.722Z,16.4
2017-07-09T07:37:12.742Z,16.4
2017-07-09T07:38:14.779Z,16.4
2017-07-09T07:39:16.795Z,16.4
2017-07-09T07:40:19.154Z,16.5
2017-07-09T07:41:21.173Z,16.4
2017-07-09T07:42:23.191Z,16.4
2017-07-09T07:43:25.212Z,16.4
2017-07-09T07:44:27.235Z,16.4
2017-07-09T07:45:29.258Z,16.5
2017-07-09T07:46:31.287Z,16.6
2017-07-09T07:47:33.307Z,16.6
2017-07-09T07:48:35.316Z,16.6
2017-07-09T07:49:37.338Z,16.7
2017-07-09T07:50:39.370Z,16.7
2017-07-09T07:51:41.391Z,16.8
2017-07-09T07:52:43.416Z,16.8
2017-07-09T07:53:45.434Z,16.7
2017-07-09T07:54:47.452Z,16.7
2017-07-09T07:55:49.488Z,16.7
2017-07-09T07:56:51.833Z,16.7
2017-07-09T07:57:53.857Z,16.7
2017-07-09T07:58:55.879Z,16.7
2017-07-09T07:59:57.904Z,16.8
2017-07-09T08:00:59.920Z,16.9
2017-07-09T08:02:01.934Z,16.8
2017-07-09T08:03:03.969Z,16.9
2017-07-09T08:04:05.994Z,16.8
2017-07-09T08:05:08.347Z,16.9
2017-07-09T08:06:10.378Z,16.9
2017-07-09T08:07:12.399Z,16.9
2017-07-09T08:08:14.422Z,16.9
2017-07-09T08:09:16.447Z,16.9
2017-07-09T08:10:18.471Z,16.9
2017-07-09T08:11:20.500Z,16.8
2017-07-09T08:12:22.516Z,16.9
2017-07-09T08:13:24.544Z,17
2017-07-09T08:14:26.563Z,16.9
2017-07-09T08:15:28.584Z,16.9
2017-07-09T08:16:30.941Z,16.9
2017-07-09T08:17:32.974Z,16.9
2017-07-09T08:18:34.991Z,17.1
2017-07-09T08:19:37.009Z,17.2
2017-07-09T08:20:39.023Z,17.2
2017-07-09T08:21:41.052Z,17.2
2017-07-09T08:22:43.073Z,17.2
2017-07-09T08:23:45.099Z,17.3
2017-07-09T08:24:47.123Z,17.3
2017-07-09T08:25:49.158Z,17.3
2017-07-09T08:26:51.178Z,17.3
2017-07-09T08:27:53.210Z,17.2
2017-07-09T08:28:55.221Z,17.1
2017-07-09T08:29:57.256Z,17.1
2017-07-09T08:30:59.286Z,17.2
2017-07-09T08:32:01.309Z,17.3
2017-07-09T08:33:03.331Z,17.3
2017-07-09T08:34:05.355Z,17.3
2017-07-09T08:35:07.380Z,17.3
2017-07-09T08:36:09.398Z,17.3
2017-07-09T08:37:11.419Z,17.4
2017-07-09T08:38:13.450Z,17.5
2017-07-09T08:39:15.469Z,17.6
2017-07-09T08:40:17.491Z,17.8
2017-07-09T08:41:19.512Z,17.9
2017-07-09T08:42:21.539Z,17.9
2017-07-09T08:43:23.561Z,18
2017-07-09T08:44:25.577Z,18
2017-07-09T08:45:27.604Z,18.1
2017-07-09T08:46:29.621Z,18.3
2017-07-09T08:47:31.641Z,18.4
2017-07-09T08:48:33.668Z,18.5
2017-07-09T08:49:35.690Z,18.6
2017-07-09T08:50:38.063Z,18.6
2017-07-09T08:51:40.084Z,18.6
2017-07-09T08:52:42.105Z,18.7
2017-07-09T08:53:44.135Z,18.8
2017-07-09T08:54:46.167Z,18.7
2017-07-09T08:55:48.199Z,19
2017-07-09T08:56:50.222Z,19
2017-07-09T08:57:52.246Z,19.1
2017-07-09T08:58:54.272Z,19.2
2017-07-09T08:59:56.283Z,19.3
2017-07-09T09:00:58.312Z,19.5
2017-07-09T09:02:00.344Z,19.6
2017-07-09T09:03:02.377Z,19.6
2017-07-09T09:04:04.398Z,19.9
2017-07-09T09:05:06.425Z,20
2017-07-09T09:06:08.459Z,20
2017-07-09T09:07:10.472Z,19.9
2017-07-09T09:08:12.496Z,19.9
2017-07-09T09:09:14.517Z,20.2
2017-07-09T09:10:16.549Z,20.1
2017-07-09T09:11:18.579Z,19.9
2017-07-09T09:12:20.604Z,20.1
2017-07-09T09:13:22.633Z,20.3
2017-07-09T09:14:24.661Z,20.5
2017-07-09T09:15:26.693Z,20
2017-07-09T09:16:28.716Z,19.9
2017-07-09T09:17:30.741Z,20
2017-07-09T09:18:32.771Z,20.2
2017-07-09T09:19:34.797Z,20
2017-07-09T09:20:36.824Z,20
2017-07-09T09:21:38.846Z,20.2
2017-07-09T09:22:40.882Z,20.2
2017-07-09T09:23:42.899Z,20
2017-07-09T09:24:44.932Z,20
2017-07-09T09:25:46.962Z,20.1
2017-07-09T09:26:48.984Z,20.2
2017-07-09T09:27:51.012Z,20.1
2017-07-09T09:28:53.042Z,20.5
2017-07-09T09:29:55.073Z,20.5
2017-07-09T09:30:57.099Z,20.6
2017-07-09T09:31:59.125Z,20.7
2017-07-09T09:33:01.168Z,20.8
2017-07-09T09:34:03.190Z,20.8
2017-07-09T09:35:05.213Z,20.8
2017-07-09T09:36:07.597Z,20.7
2017-07-09T09:37:09.620Z,20.6
2017-07-09T09:38:11.649Z,20.6
2017-07-09T09:39:13.681Z,20.5
2017-07-09T09:40:15.702Z,20.5
2017-07-09T09:41:18.067Z,20.6
2017-07-09T09:42:20.103Z,20.6
2017-07-09T09:43:22.136Z,20.5
2017-07-09T09:44:24.504Z,20.8
2017-07-09T09:45:26.531Z,20.7
2017-07-09T09:46:28.564Z,20.9
2017-07-09T09:47:30.934Z,20.9
2017-07-09T09:48:32.967Z,21
2017-07-09T09:49:34.993Z,21.1
2017-07-09T09:50:37.024Z,21.1
2017-07-09T09:51:39.048Z,20.9
2017-07-09T09:52:41.072Z,21.1
2017-07-09T09:53:43.114Z,21.2
2017-07-09T09:54:45.140Z,21.3
2017-07-09T09:55:47.172Z,21.5
2017-07-09T09:56:49.202Z,21.8
2017-07-09T09:57:51.570Z,22.1
2017-07-09T09:58:53.613Z,22.1
2017-07-09T09:59:55.638Z,21.9
2017-07-09T10:00:57.670Z,21.7
2017-07-09T10:01:59.712Z,21.6
2017-07-09T10:03:01.734Z,21.3
2017-07-09T10:04:03.759Z,21.4
2017-07-09T10:05:05.794Z,21.6
2017-07-09T10:06:59.162Z,21.8
2017-07-09T10:08:01.188Z,21.4
2017-07-09T10:09:03.215Z,21.5
2017-07-09T10:10:05.259Z,21.5
2017-07-09T10:11:08.094Z,21.2
2017-07-09T10:12:10.134Z,21.4
2017-07-09T10:13:12.266Z,21.6
2017-07-09T10:14:14.362Z,21.6
2017-07-09T10:15:16.411Z,21.5
2017-07-09T10:16:18.461Z,21.5
2017-07-09T10:17:20.528Z,21.3
2017-07-09T10:18:22.917Z,21.4
2017-07-09T10:19:24.953Z,21.4
2017-07-09T10:20:27.357Z,21.5
2017-07-09T10:21:29.405Z,21.5
2017-07-09T10:22:31.449Z,21.7
2017-07-09T10:23:33.497Z,21.9
2017-07-09T10:24:35.539Z,22.3
2017-07-09T10:25:37.588Z,22.1
2017-07-09T10:26:39.625Z,22
2017-07-09T10:27:41.678Z,22.3
2017-07-09T10:28:44.004Z,22.5
2017-07-09T10:29:46.042Z,22.4
2017-07-09T10:31:18.152Z,22.2
2017-07-09T10:32:20.548Z,22.2
2017-07-09T10:33:22.583Z,22.1
2017-07-09T10:34:25.843Z,22.1
2017-07-09T10:35:28.042Z,22.2
2017-07-09T10:36:30.078Z,22.1
2017-07-09T10:37:32.123Z,22.3
2017-07-09T10:38:34.165Z,22
2017-07-09T10:39:36.195Z,22.2
2017-07-09T10:40:38.246Z,22.3
2017-07-09T10:41:40.287Z,22.6
2017-07-09T10:42:42.329Z,22.7
2017-07-09T10:43:44.378Z,22.8
2017-07-09T10:44:46.413Z,22.5
2017-07-09T10:45:48.465Z,22.3
2017-07-09T10:46:50.511Z,22.4
2017-07-09T10:47:52.547Z,22.5
2017-07-09T10:48:54.600Z,22.5
2017-07-09T10:49:56.645Z,22.8
2017-07-09T10:50:58.684Z,23.1
2017-07-09T10:52:00.724Z,22.9
2017-07-09T10:53:02.766Z,23
2017-07-09T10:54:04.809Z,22.8
2017-07-09T10:55:06.852Z,23.1
2017-07-09T10:56:08.901Z,23.2
2017-07-09T10:57:10.960Z,23
2017-07-09T10:58:12.995Z,23
2017-07-09T10:59:15.039Z,23.1
2017-07-09T11:00:17.082Z,23
2017-07-09T11:01:19.123Z,23
2017-07-09T11:02:21.160Z,23.1
2017-07-09T11:03:23.203Z,23.2
2017-07-09T11:04:25.238Z,23.2
2017-07-09T11:05:27.272Z,23.5
2017-07-09T11:06:29.329Z,23.3
2017-07-09T11:07:31.373Z,23.5
2017-07-09T11:08:33.405Z,23.1
2017-07-09T11:09:35.446Z,23.3
2017-07-09T11:10:37.475Z,23
2017-07-09T11:11:39.516Z,23.4
2017-07-09T11:12:41.557Z,23.2
2017-07-09T11:13:43.606Z,23.2
2017-07-09T11:14:45.652Z,23.2
2017-07-09T11:15:47.690Z,23.2
2017-07-09T11:16:49.732Z,23.1
2017-07-09T11:17:51.774Z,23.2
2017-07-09T11:18:53.821Z,23.2
2017-07-09T11:19:55.874Z,23.1
2017-07-09T11:20:57.924Z,23.1
2017-07-09T11:21:59.966Z,23.3
2017-07-09T11:23:02.008Z,23.4
2017-07-09T11:24:04.050Z,23.2
2017-07-09T11:25:06.098Z,23.5
2017-07-09T11:26:08.141Z,23.7
2017-07-09T11:27:10.178Z,23.5
2017-07-09T11:28:12.225Z,23.5
2017-07-09T11:29:14.270Z,23.2
2017-07-09T11:30:16.308Z,23.2
2017-07-09T11:31:18.709Z,23.4
2017-07-09T11:32:20.748Z,23.7
2017-07-09T11:33:22.794Z,23.7
2017-07-09T11:34:24.863Z,23.8
2017-07-09T11:35:26.877Z,23.7
2017-07-09T11:36:28.925Z,24.2
2017-07-09T11:37:30.984Z,23.5
2017-07-09T11:38:33.032Z,23.5
2017-07-09T11:39:35.059Z,23.7
2017-07-09T11:40:37.108Z,24.1
2017-07-09T11:41:39.141Z,23.7
2017-07-09T11:42:41.182Z,23.5
2017-07-09T11:43:43.219Z,23.5
2017-07-09T11:44:45.267Z,23.7
2017-07-09T11:45:47.308Z,23.5
2017-07-09T11:46:49.341Z,23.4
2017-07-09T11:47:51.374Z,23.5
2017-07-09T11:48:53.434Z,24.1
2017-07-09T11:49:55.480Z,24.4
2017-07-09T11:50:57.531Z,24.1
2017-07-09T11:51:59.572Z,24.1
2017-07-09T11:53:01.613Z,23.9
2017-07-09T11:54:03.658Z,24.2
2017-07-09T11:55:05.698Z,24.3
2017-07-09T11:56:07.944Z,24
2017-07-09T11:57:09.991Z,24.5
2017-07-09T11:58:12.033Z,24.3
2017-07-09T11:59:14.419Z,24.3
2017-07-09T12:00:16.459Z,24.2
2017-07-09T12:01:18.512Z,24.1
2017-07-09T12:02:20.556Z,23.8
2017-07-09T12:03:22.603Z,24.3
2017-07-09T12:04:24.644Z,24.2
2017-07-09T12:05:26.700Z,24.2
2017-07-09T12:06:28.742Z,24.3
2017-07-09T12:07:30.784Z,24.1
2017-07-09T12:08:32.833Z,24.2
2017-07-09T12:09:34.880Z,24.1
2017-07-09T12:10:37.248Z,24.3
2017-07-09T12:11:39.291Z,24.3
2017-07-09T12:12:41.325Z,24.5
2017-07-09T12:13:43.374Z,24.7
2017-07-09T12:14:45.412Z,24.5
2017-07-09T12:15:47.455Z,24.7
2017-07-09T12:16:49.829Z,24.9
2017-07-09T12:17:51.873Z,24.4
2017-07-09T12:18:53.911Z,24.3
2017-07-09T12:19:55.947Z,24.5
2017-07-09T12:20:57.989Z,24.4
2017-07-09T12:22:00.037Z,24.4
2017-07-09T12:23:02.074Z,24.3
2017-07-09T12:24:04.111Z,24.4
2017-07-09T12:25:06.156Z,24.3
2017-07-09T12:26:08.209Z,24.5
2017-07-09T12:27:10.236Z,24.9
2017-07-09T12:28:12.292Z,25
2017-07-09T12:29:14.328Z,25
2017-07-09T12:30:16.384Z,24.6
2017-07-09T12:31:18.420Z,24.6
2017-07-09T12:32:20.814Z,24.7
2017-07-09T12:33:22.864Z,24.8
2017-07-09T12:34:24.899Z,24.8
2017-07-09T12:35:26.934Z,24.5
2017-07-09T12:36:28.988Z,24.9
2017-07-09T12:37:31.038Z,24.8
2017-07-09T12:38:33.080Z,24.9
2017-07-09T12:39:35.466Z,25.1
2017-07-09T12:40:37.504Z,25.4
2017-07-09T12:41:39.553Z,25.1
2017-07-09T12:42:41.592Z,25
2017-07-09T12:43:43.648Z,25.1
2017-07-09T12:44:45.693Z,25.5
2017-07-09T12:45:47.741Z,25.6
2017-07-09T12:46:49.779Z,25.5
2017-07-09T12:47:51.813Z,25.1
2017-07-09T12:48:53.856Z,24.9
2017-07-09T12:49:56.578Z,25
2017-07-09T12:50:58.947Z,24.9
2017-07-09T12:52:00.997Z,24.9
2017-07-09T12:53:03.030Z,25.4
2017-07-09T12:54:05.084Z,25.3
2017-07-09T12:55:07.123Z,25.1
2017-07-09T12:56:09.158Z,25.1
2017-07-09T12:57:11.206Z,25
2017-07-09T12:58:13.247Z,24.8
2017-07-09T12:59:15.303Z,24.8
2017-07-09T13:00:17.350Z,24.8
2017-07-09T13:01:19.382Z,24.8
2017-07-09T13:02:21.438Z,25.1
2017-07-09T13:03:23.456Z,25.4
2017-07-09T13:04:25.503Z,25.3
2017-07-09T13:05:27.548Z,25.4
2017-07-09T13:06:29.601Z,25.3
2017-07-09T13:07:32.008Z,25.4
2017-07-09T13:08:34.037Z,24.9
2017-07-09T13:09:36.074Z,24.6
2017-07-09T13:10:38.479Z,24.2
2017-07-09T13:11:40.516Z,24.7
2017-07-09T13:12:42.573Z,24.9
2017-07-09T13:13:44.616Z,24.8
2017-07-09T13:14:46.653Z,25
2017-07-09T13:15:48.695Z,25
2017-07-09T13:16:50.732Z,25.1
2017-07-09T13:17:52.773Z,25
2017-07-09T13:18:54.827Z,24.9
2017-07-09T13:19:56.867Z,25
2017-07-09T13:20:58.918Z,25.3
2017-07-09T13:22:00.965Z,25.7
2017-07-09T13:23:03.003Z,25.7
2017-07-09T13:24:05.047Z,25.3
2017-07-09T13:25:07.093Z,25.8
2017-07-09T13:26:09.152Z,25.9
2017-07-09T13:27:11.197Z,25.8
2017-07-09T13:28:13.233Z,26.1
2017-07-09T13:29:15.274Z,25.8
2017-07-09T13:30:17.317Z,25.9
2017-07-09T13:31:19.358Z,26.2
2017-07-09T13:32:21.419Z,26.3
2017-07-09T13:33:23.459Z,26.2
2017-07-09T13:34:25.508Z,26.3
2017-07-09T13:35:27.552Z,26.2
2017-07-09T13:36:29.939Z,25.9
2017-07-09T13:37:31.979Z,25.8
2017-07-09T13:38:34.026Z,25.8
2017-07-09T13:39:36.077Z,25.7
2017-07-09T13:40:38.115Z,25.7
2017-07-09T13:41:40.156Z,25.6
2017-07-09T13:42:42.208Z,25.3
2017-07-09T13:43:44.592Z,25.1
2017-07-09T13:44:46.653Z,25.4
2017-07-09T13:45:48.696Z,25.3
2017-07-09T13:46:50.742Z,25.6
2017-07-09T13:47:52.801Z,26
2017-07-09T13:48:54.837Z,26.2
2017-07-09T13:49:56.888Z,26.1
2017-07-09T13:50:58.938Z,25.8
2017-07-09T13:52:00.973Z,25.8
2017-07-09T13:53:03.013Z,25.8